createdAt,value
2022-11-15T00:01:25.744Z,67.65
2022-11-15T00:06:29.371Z,70.65
2022-11-15T00:11:33.115Z,71.18
2022-11-15T00:16:37.910Z,70.00
2022-11-15T00:21:41.303Z,69.80
2022-11-15T00:26:44.889Z,84.43
2022-11-15T00:31:49.623Z,79.00
2022-11-15T00:36:53.042Z,74.13
2022-11-15T00:41:56.704Z,71.55
2022-11-15T00:47:01.464Z,65.97
2022-11-15T00:52:05.133Z,64.18
2022-11-15T00:57:08.503Z,72.07
2022-11-15T01:02:13.207Z,66.75
2022-11-15T01:07:16.794Z,61.30
2022-11-15T01:12:20.245Z,56.35
2022-11-15T01:17:25.126Z,62.78
2022-11-15T01:22:28.548Z,66.10
2022-11-15T01:27:31.992Z,63.80
2022-11-15T01:32:36.705Z,57.95
2022-11-15T01:37:40.100Z,57.28
2022-11-15T01:42:44.070Z,54.58
2022-11-15T01:47:53.734Z,58.75
2022-11-15T01:52:57.461Z,58.72
2022-11-15T01:58:05.907Z,63.33
2022-11-15T02:03:10.673Z,57.90
2022-11-15T02:08:21.028Z,82.22
2022-11-15T02:13:25.111Z,78.05
2022-11-15T02:18:38.875Z,65.78
2022-11-15T02:24:24.515Z,56.88
2022-11-15T02:29:41.776Z,63.10
2022-11-15T02:34:53.737Z,59.25
2022-11-15T02:40:05.366Z,56.35
2022-11-15T02:45:11.899Z,54.80
2022-11-15T02:50:20.625Z,57.05
2022-11-15T02:55:29.765Z,59.42
2022-11-15T03:00:37.626Z,59.53
2022-11-15T03:05:48.947Z,52.42
2022-11-15T03:11:03.738Z,56.28
2022-11-15T03:16:11.174Z,55.63
2022-11-15T03:21:16.728Z,59.03
2022-11-15T03:26:23.330Z,57.22
2022-11-15T03:31:51.352Z,59.00
2022-11-15T03:36:56.956Z,53.85
2022-11-15T03:42:10.389Z,50.45
2022-11-15T03:47:18.532Z,56.38
2022-11-15T03:52:24.638Z,60.13
2022-11-15T03:57:28.247Z,52.92
2022-11-15T04:02:31.656Z,51.10
2022-11-15T04:07:36.459Z,57.17
2022-11-15T04:12:43.648Z,58.42
2022-11-15T04:17:48.824Z,57.60
2022-11-15T04:23:13.807Z,55.60
2022-11-15T04:28:17.410Z,54.63
2022-11-15T04:33:21.026Z,53.92
2022-11-15T04:38:25.733Z,52.00
2022-11-15T04:43:29.418Z,59.28
2022-11-15T04:48:33.026Z,54.28
2022-11-15T04:53:38.056Z,55.22
2022-11-15T04:58:41.450Z,57.00
2022-11-15T05:04:03.668Z,55.88
2022-11-15T05:09:08.518Z,59.13
2022-11-15T05:14:12.114Z,53.53
2022-11-15T05:19:15.750Z,59.45
2022-11-15T05:24:20.497Z,54.33
2022-11-15T05:29:24.343Z,55.03
2022-11-15T05:34:28.404Z,51.78
2022-11-15T05:39:33.537Z,54.78
2022-11-15T05:44:39.222Z,62.85
2022-11-15T05:49:44.250Z,56.40
2022-11-15T05:54:49.428Z,57.03
2022-11-15T05:59:53.757Z,62.90
2022-11-15T06:04:57.102Z,58.30
2022-11-15T06:10:01.806Z,53.65
2022-11-15T06:15:05.820Z,60.33
2022-11-15T06:20:09.969Z,60.35
2022-11-15T06:25:14.859Z,52.42
2022-11-15T06:30:18.381Z,54.17
2022-11-15T06:35:21.744Z,52.55
2022-11-15T06:40:26.723Z,56.55
2022-11-15T06:45:30.114Z,56.60
2022-11-15T06:50:33.630Z,55.33
2022-11-15T06:55:38.632Z,58.70
2022-11-15T07:00:42.319Z,58.13
2022-11-15T07:05:53.407Z,58.92
2022-11-15T07:11:00.846Z,54.85
2022-11-15T07:16:05.171Z,58.35
2022-11-15T07:21:10.571Z,59.47
2022-11-15T07:26:15.280Z,58.10
2022-11-15T07:31:18.790Z,58.92
2022-11-15T07:36:22.281Z,58.42
2022-11-15T07:41:27.284Z,57.20
2022-11-15T07:46:30.785Z,58.22
2022-11-15T07:51:34.251Z,50.97
2022-11-15T07:56:40.125Z,49.60
2022-11-15T08:01:43.796Z,56.30
2022-11-15T08:06:48.127Z,60.38
2022-11-15T08:11:52.888Z,56.55
2022-11-15T08:16:57.457Z,55.22
2022-11-15T08:22:00.810Z,61.58
2022-11-15T08:27:05.665Z,57.15
2022-11-15T08:32:09.396Z,60.42
2022-11-15T08:37:12.774Z,55.55
2022-11-15T08:42:19.973Z,55.28
2022-11-15T08:47:23.734Z,47.72
2022-11-15T08:52:27.106Z,59.60
2022-11-15T08:57:32.453Z,59.55
2022-11-15T09:02:35.951Z,61.13
2022-11-15T09:07:39.606Z,57.83
2022-11-15T09:12:44.844Z,68.10
2022-11-15T09:17:48.439Z,65.22
2022-11-15T09:22:51.921Z,70.72
2022-11-15T09:27:56.654Z,69.55
2022-11-15T09:33:00.108Z,65.93
2022-11-15T09:38:03.794Z,57.90
2022-11-15T09:43:26.058Z,59.58
2022-11-15T09:48:51.955Z,57.58
2022-11-15T09:59:48.823Z,54.70
2022-11-15T10:10:28.294Z,50.50
2022-11-15T10:15:34.112Z,47.60
2022-11-15T10:20:54.328Z,45.75
2022-11-15T10:26:06.389Z,37.63
2022-11-15T10:31:25.100Z,43.40
2022-11-15T10:36:29.577Z,40.53
2022-11-15T10:41:43.418Z,39.70
2022-11-15T10:50:04.263Z,36.80
2022-11-15T10:55:26.476Z,32.05
2022-11-15T11:00:34.852Z,30.52
2022-11-15T11:05:43.110Z,32.22
2022-11-15T11:11:00.174Z,28.13
2022-11-15T11:16:39.371Z,24.92
2022-11-15T11:21:53.431Z,23.92
2022-11-15T11:27:15.258Z,26.20
2022-11-15T11:32:48.496Z,22.88
2022-11-15T11:38:03.398Z,24.15
2022-11-15T11:43:17.167Z,29.80
2022-11-15T11:48:33.151Z,22.52
2022-11-15T11:53:44.767Z,18.55
2022-11-15T11:58:50.577Z,15.48
2022-11-15T12:03:59.118Z,18.40
2022-11-15T12:09:15.095Z,16.38
2022-11-15T12:14:31.557Z,18.25
2022-11-15T12:19:35.955Z,18.95
2022-11-15T12:24:45.357Z,17.90
2022-11-15T12:29:53.402Z,21.67
2022-11-15T12:34:57.733Z,19.35
2022-11-15T12:40:24.860Z,21.95
2022-11-15T12:45:33.032Z,22.90
2022-11-15T12:50:55.328Z,20.52
2022-11-15T12:56:26.908Z,27.97
2022-11-15T13:02:01.333Z,23.83
2022-11-15T13:07:06.848Z,22.45
2022-11-15T13:12:14.529Z,22.33
2022-11-15T13:17:37.076Z,32.17
2022-11-15T13:22:55.620Z,22.53
2022-11-15T13:28:05.101Z,21.92
2022-11-15T13:33:18.107Z,25.45
2022-11-15T13:38:29.256Z,25.90
2022-11-15T13:43:37.610Z,21.42
2022-11-15T13:48:43.579Z,22.02
2022-11-15T13:53:51.309Z,24.08
2022-11-15T13:58:55.895Z,21.27
2022-11-15T14:04:03.000Z,24.25
2022-11-15T14:09:42.228Z,22.02
2022-11-15T14:14:47.928Z,22.65
2022-11-15T14:19:53.337Z,28.23
2022-11-15T14:25:16.078Z,24.05
2022-11-15T14:30:20.062Z,21.60
2022-11-15T14:35:25.563Z,20.10
2022-11-15T14:40:29.319Z,20.05
2022-11-15T14:45:32.976Z,19.65
2022-11-15T14:50:38.065Z,22.83
2022-11-15T14:55:41.570Z,22.10
2022-11-15T15:00:44.945Z,26.30
2022-11-15T15:05:49.693Z,27.63
2022-11-15T15:10:53.049Z,25.67
2022-11-15T15:15:56.671Z,29.02
2022-11-15T15:21:07.854Z,27.25
2022-11-15T15:26:11.771Z,32.25
2022-11-15T15:31:15.144Z,27.45
2022-11-15T15:36:20.904Z,31.45
2022-11-15T15:41:25.482Z,31.20
2022-11-15T15:46:28.973Z,27.08
2022-11-15T15:51:33.686Z,32.97
2022-11-15T15:56:37.119Z,31.58
2022-11-15T16:01:40.698Z,35.10
2022-11-15T16:06:46.462Z,40.35
2022-11-15T16:11:49.896Z,49.78
2022-11-15T16:16:53.236Z,49.08
2022-11-15T16:21:58.014Z,43.10
2022-11-15T16:27:01.493Z,40.13
2022-11-15T16:32:05.160Z,43.80
2022-11-15T16:37:22.145Z,59.22
2022-11-15T16:42:25.551Z,69.53
2022-11-15T16:47:28.924Z,67.80
2022-11-15T16:52:34.009Z,63.92
2022-11-15T16:57:37.534Z,78.20
2022-11-15T17:02:41.163Z,86.30
2022-11-15T17:07:50.526Z,81.80
2022-11-15T17:12:57.386Z,67.72
2022-11-15T17:18:01.311Z,59.38
2022-11-15T17:23:12.183Z,64.97
2022-11-15T17:28:15.720Z,61.92
2022-11-15T17:33:19.467Z,58.47
2022-11-15T17:38:24.287Z,58.25
2022-11-15T17:43:28.036Z,65.32
2022-11-15T17:48:32.071Z,56.33
2022-11-15T17:53:38.851Z,57.00
2022-11-15T17:58:43.793Z,62.60
2022-11-15T18:03:47.999Z,72.63
2022-11-15T18:08:55.947Z,91.80
2022-11-15T18:14:01.803Z,98.40
2022-11-15T18:19:08.985Z,106.28
2022-11-15T18:24:13.804Z,97.82
2022-11-15T18:29:17.568Z,85.57
2022-11-15T18:34:21.295Z,85.00
2022-11-15T18:39:26.086Z,67.10
2022-11-15T18:44:30.160Z,52.67
2022-11-15T18:49:33.580Z,51.72
2022-11-15T18:54:38.580Z,57.58
2022-11-15T18:59:42.024Z,66.13
2022-11-15T19:04:45.473Z,65.65
2022-11-15T19:09:50.215Z,70.78
2022-11-15T19:14:54.503Z,77.65
2022-11-15T19:19:57.957Z,68.65
2022-11-15T19:25:05.184Z,63.40
2022-11-15T19:30:10.446Z,58.45
2022-11-15T19:35:13.894Z,61.17
2022-11-15T19:40:19.769Z,62.20
2022-11-15T19:45:23.347Z,65.78
2022-11-15T19:50:26.886Z,60.45
2022-11-15T19:55:32.694Z,58.50
2022-11-15T20:00:37.711Z,62.38
2022-11-15T20:05:41.462Z,65.07
2022-11-15T20:10:48.054Z,67.97
2022-11-15T20:15:51.937Z,66.20
2022-11-15T20:20:59.136Z,68.97
2022-11-15T20:26:03.956Z,63.65
2022-11-15T20:31:08.797Z,68.95
2022-11-15T20:36:14.437Z,62.17
2022-11-15T20:41:19.651Z,65.40
2022-11-15T20:46:23.194Z,70.63
2022-11-15T20:51:26.601Z,69.13
2022-11-15T20:56:31.438Z,67.80
2022-11-15T21:01:34.960Z,76.60
2022-11-15T21:06:42.422Z,75.88
2022-11-15T21:12:07.079Z,69.25
2022-11-15T21:17:11.037Z,76.90
2022-11-15T21:22:15.569Z,68.88
2022-11-15T21:27:21.328Z,65.35
2022-11-15T21:32:24.848Z,85.38
2022-11-15T21:37:28.565Z,105.78
2022-11-15T21:42:33.348Z,126.68
2022-11-15T21:47:36.756Z,124.22
2022-11-15T21:52:40.789Z,118.32
2022-11-15T21:57:45.673Z,106.78
2022-11-15T22:02:49.045Z,107.18
2022-11-15T22:07:52.798Z,88.13
2022-11-15T22:12:58.129Z,92.38
2022-11-15T22:18:02.054Z,91.63
2022-11-15T22:23:06.533Z,95.25
2022-11-15T22:28:11.836Z,84.05
2022-11-15T22:33:15.908Z,82.28
2022-11-15T22:38:20.626Z,82.80
2022-11-15T22:43:27.275Z,78.13
2022-11-15T22:48:33.826Z,80.80
2022-11-15T22:53:38.001Z,84.20
2022-11-15T22:58:43.551Z,80.40
2022-11-15T23:03:47.543Z,81.80
2022-11-15T23:08:51.450Z,89.65
2022-11-15T23:13:57.191Z,90.03
2022-11-15T23:19:02.364Z,95.70
2022-11-15T23:24:07.111Z,98.28
2022-11-15T23:29:14.029Z,102.90
2022-11-15T23:34:22.267Z,96.60
2022-11-15T23:39:26.973Z,100.68
2022-11-15T23:44:32.395Z,104.55
2022-11-15T23:49:36.287Z,108.88
2022-11-15T23:54:40.436Z,95.82
2022-11-15T23:59:46.087Z,101.10
